createdAt,value
2022-09-21T00:00:21.131Z,6.44
2022-09-21T00:02:47.950Z,6.35
2022-09-21T00:05:17.214Z,6.30
2022-09-21T00:07:44.290Z,6.20
2022-09-21T00:10:11.216Z,6.19
2022-09-21T00:12:38.709Z,6.14
2022-09-21T00:15:07.338Z,6.14
2022-09-21T00:17:34.426Z,6.13
2022-09-21T00:20:02.240Z,6.08
2022-09-21T00:22:30.525Z,6.03
2022-09-21T00:24:57.345Z,5.99
2022-09-21T00:27:30.214Z,5.96
2022-09-21T00:29:57.496Z,5.89
2022-09-21T00:32:25.290Z,5.93
2022-09-21T00:34:52.704Z,5.89
2022-09-21T00:37:19.879Z,5.87
2022-09-21T00:39:48.070Z,5.81
2022-09-21T00:42:18.305Z,5.82
2022-09-21T00:44:45.153Z,5.80
2022-09-21T00:47:14.221Z,5.75
2022-09-21T00:49:42.317Z,5.70
2022-09-21T00:52:12.782Z,5.66
2022-09-21T00:57:31.510Z,5.55
2022-09-21T01:00:03.281Z,5.51
2022-09-21T01:02:30.185Z,5.46
2022-09-21T01:04:57.361Z,5.45
2022-09-21T01:07:28.417Z,5.38
2022-09-21T01:09:59.453Z,5.38
2022-09-21T01:12:38.377Z,5.35
2022-09-21T01:15:23.701Z,5.30
2022-09-21T01:17:59.529Z,5.28
2022-09-21T01:21:02.640Z,5.25
2022-09-21T01:23:47.884Z,5.20
2022-09-21T01:26:25.433Z,5.19
2022-09-21T01:29:16.205Z,5.18
2022-09-21T01:31:51.018Z,5.13
2022-09-21T01:34:25.871Z,5.09
2022-09-21T01:36:55.355Z,5.07
2022-09-21T01:39:25.467Z,5.00
2022-09-21T01:41:55.227Z,4.98
2022-09-21T01:44:27.922Z,4.98
2022-09-21T01:46:56.691Z,4.95
2022-09-21T01:49:28.094Z,4.89
2022-09-21T01:52:00.842Z,4.88
2022-09-21T01:54:34.989Z,4.84
2022-09-21T01:57:07.481Z,4.84
2022-09-21T01:59:46.751Z,4.82
2022-09-21T02:02:18.462Z,4.81
2022-09-21T02:04:45.390Z,4.82
2022-09-21T02:07:12.454Z,4.82
2022-09-21T02:09:39.590Z,4.77
2022-09-21T02:12:06.515Z,4.75
2022-09-21T02:14:35.745Z,4.73
2022-09-21T02:17:15.085Z,4.67
2022-09-21T02:19:50.752Z,4.59
2022-09-21T02:22:29.267Z,4.55
2022-09-21T02:25:04.019Z,4.56
2022-09-21T02:27:36.473Z,4.54
2022-09-21T02:30:07.956Z,4.47
2022-09-21T02:32:43.861Z,4.43
2022-09-21T02:35:20.864Z,4.40
2022-09-21T02:37:56.057Z,4.39
2022-09-21T02:40:30.472Z,4.36
2022-09-21T02:43:02.276Z,4.33
2022-09-21T02:45:34.358Z,4.32
2022-09-21T02:48:07.692Z,4.33
2022-09-21T02:50:41.322Z,4.29
2022-09-21T02:53:11.422Z,4.28
2022-09-21T02:55:38.974Z,4.26
2022-09-21T02:58:10.725Z,4.23
2022-09-21T03:00:37.967Z,4.20
2022-09-21T03:03:17.373Z,4.20
2022-09-21T03:05:46.783Z,4.19
2022-09-21T03:08:13.588Z,4.19
2022-09-21T03:10:40.768Z,4.19
2022-09-21T03:13:09.211Z,4.21
2022-09-21T03:15:36.137Z,4.17
2022-09-21T03:18:05.045Z,4.17
2022-09-21T03:20:33.877Z,4.04
2022-09-21T03:23:00.971Z,4.05
2022-09-21T03:25:28.735Z,4.04
2022-09-21T03:27:56.154Z,4.00
2022-09-21T03:30:24.022Z,3.95
2022-09-21T03:32:51.381Z,3.98
2022-09-21T03:35:18.777Z,3.99
2022-09-21T03:37:47.391Z,3.90
2022-09-21T03:40:14.935Z,3.91
2022-09-21T03:42:42.552Z,3.90
2022-09-21T03:45:11.087Z,3.91
2022-09-21T03:47:38.747Z,3.90
2022-09-21T03:50:09.781Z,3.87
2022-09-21T03:52:38.583Z,3.82
2022-09-21T03:55:08.908Z,3.83
2022-09-21T03:57:36.526Z,3.77
2022-09-21T04:00:04.883Z,3.75
2022-09-21T04:02:32.175Z,3.74
2022-09-21T04:04:59.306Z,3.76
2022-09-21T04:07:26.372Z,3.75
2022-09-21T04:09:54.033Z,3.70
2022-09-21T04:12:23.091Z,3.66
2022-09-21T04:14:49.914Z,3.65
2022-09-21T04:17:17.019Z,3.61
2022-09-21T04:19:45.191Z,3.60
2022-09-21T04:22:12.605Z,3.58
2022-09-21T04:24:41.040Z,3.56
2022-09-21T04:27:08.399Z,3.52
2022-09-21T04:29:37.042Z,3.50
2022-09-21T04:32:05.195Z,3.49
2022-09-21T04:34:32.046Z,3.44
2022-09-21T04:36:59.367Z,3.45
2022-09-21T04:39:26.533Z,3.47
2022-09-21T04:41:53.370Z,3.48
2022-09-21T04:44:20.468Z,3.51
2022-09-21T04:46:48.795Z,3.49
2022-09-21T04:49:16.106Z,3.47
2022-09-21T04:51:42.979Z,3.48
2022-09-21T04:54:11.005Z,-147.88
2022-09-21T04:56:38.029Z,-147.88
2022-09-21T04:59:05.302Z,-147.88
2022-09-21T05:01:32.258Z,-147.88
2022-09-21T05:04:02.523Z,-147.88
2022-09-21T05:06:29.924Z,-147.88
2022-09-21T05:09:15.528Z,-147.88
2022-09-21T05:11:42.796Z,-147.88
2022-09-21T05:14:10.129Z,-147.88
2022-09-21T05:16:37.093Z,-147.88
2022-09-21T05:19:05.532Z,-147.88
2022-09-21T05:21:32.519Z,-147.88
2022-09-21T05:23:59.372Z,-147.88
2022-09-21T05:26:26.423Z,-147.88
2022-09-21T05:28:53.889Z,3.48
2022-09-21T05:31:34.065Z,3.55
2022-09-21T05:34:12.946Z,3.59
2022-09-21T05:36:53.149Z,3.57
2022-09-21T05:39:20.931Z,3.64
2022-09-21T05:41:48.445Z,3.66
2022-09-21T05:44:15.911Z,3.73
2022-09-21T05:46:53.960Z,3.76
2022-09-21T05:49:27.271Z,3.80
2022-09-21T05:52:03.145Z,3.89
2022-09-21T05:54:41.654Z,3.98
2022-09-21T05:57:15.805Z,4.04
2022-09-21T05:59:54.582Z,4.11
2022-09-21T06:02:35.948Z,4.21
2022-09-21T06:05:10.553Z,4.31
2022-09-21T06:07:37.719Z,4.41
2022-09-21T06:10:05.375Z,4.48
2022-09-21T06:12:32.426Z,4.58
2022-09-21T06:14:59.522Z,4.69
2022-09-21T06:17:27.555Z,4.75
2022-09-21T06:19:54.470Z,4.86
2022-09-21T06:22:23.096Z,4.96
2022-09-21T06:24:50.190Z,5.04
2022-09-21T06:27:17.356Z,5.14
2022-09-21T06:29:44.331Z,5.22
2022-09-21T06:32:11.668Z,5.30
2022-09-21T06:34:38.691Z,5.45
2022-09-21T06:37:06.552Z,5.56
2022-09-21T06:39:34.853Z,5.66
2022-09-21T06:42:02.126Z,5.79
2022-09-21T06:44:30.387Z,5.87
2022-09-21T06:46:57.283Z,5.99
2022-09-21T06:49:24.300Z,6.10
2022-09-21T06:51:51.333Z,6.20
2022-09-21T06:54:18.980Z,6.30
2022-09-21T06:56:47.781Z,6.37
2022-09-21T06:59:15.726Z,6.52
2022-09-21T07:01:43.302Z,6.68
2022-09-21T07:04:10.375Z,6.78
2022-09-21T07:06:38.137Z,6.95
2022-09-21T07:11:56.239Z,7.29
2022-09-21T07:14:24.243Z,7.40
2022-09-21T07:16:51.362Z,7.59
2022-09-21T07:19:18.306Z,7.77
2022-09-21T07:21:45.499Z,7.94
2022-09-21T07:24:12.781Z,7.99
2022-09-21T07:26:40.071Z,-147.88
2022-09-21T07:29:08.599Z,8.26
2022-09-21T07:31:35.937Z,8.39
2022-09-21T07:34:03.351Z,8.38
2022-09-21T07:36:30.750Z,8.63
2022-09-21T07:38:57.654Z,8.83
2022-09-21T07:41:24.704Z,8.95
2022-09-21T07:43:52.373Z,9.08
2022-09-21T07:46:20.998Z,9.06
2022-09-21T07:48:47.844Z,9.11
2022-09-21T07:51:15.827Z,9.24
2022-09-21T07:53:46.978Z,9.03
2022-09-21T07:56:16.307Z,9.15
2022-09-21T07:59:02.184Z,9.24
2022-09-21T08:01:31.709Z,9.33
2022-09-21T08:03:59.658Z,-147.88
2022-09-21T08:06:28.556Z,9.83
2022-09-21T08:08:57.994Z,9.93
2022-09-21T08:11:27.546Z,9.98
2022-09-21T08:13:56.402Z,10.37
2022-09-21T08:16:24.550Z,10.67
2022-09-21T08:18:53.248Z,10.27
2022-09-21T08:21:20.673Z,10.04
2022-09-21T08:23:48.687Z,10.33
2022-09-21T08:26:20.924Z,10.67
2022-09-21T08:28:50.059Z,10.47
2022-09-21T08:31:19.749Z,10.51
2022-09-21T08:33:47.898Z,10.45
2022-09-21T08:36:16.668Z,10.54
2022-09-21T08:38:43.665Z,10.88
2022-09-21T08:41:22.750Z,11.05
2022-09-21T08:43:54.610Z,11.37
2022-09-21T08:46:24.795Z,11.59
2022-09-21T08:48:56.460Z,11.53
2022-09-21T08:51:27.023Z,-147.88
2022-09-21T08:54:00.383Z,11.58
2022-09-21T08:56:47.109Z,-147.88
2022-09-21T08:59:17.828Z,-147.88
2022-09-21T09:01:56.053Z,-147.88
2022-09-21T09:04:49.929Z,-147.88
2022-09-21T09:07:49.122Z,11.58
2022-09-21T09:10:34.021Z,11.40
2022-09-21T09:13:18.993Z,11.28
2022-09-21T09:15:59.300Z,11.33
2022-09-21T09:18:40.190Z,11.34
2022-09-21T09:21:17.627Z,11.51
2022-09-21T09:23:57.791Z,11.53
2022-09-21T09:26:32.388Z,11.40
2022-09-21T09:29:02.160Z,11.25
2022-09-21T09:31:31.727Z,11.28
2022-09-21T09:34:03.376Z,11.81
2022-09-21T09:36:56.737Z,12.36
2022-09-21T09:39:22.575Z,12.52
2022-09-21T09:42:28.271Z,-147.88
2022-09-21T09:45:10.313Z,-147.88
2022-09-21T09:47:50.841Z,-147.88
2022-09-21T09:50:25.413Z,-147.88
2022-09-21T09:52:57.198Z,12.52
2022-09-21T09:55:30.494Z,-147.88
2022-09-21T09:57:59.098Z,-147.88
2022-09-21T10:00:25.963Z,14.10
2022-09-21T10:02:54.555Z,14.11
2022-09-21T10:05:24.040Z,13.76
2022-09-21T10:07:51.702Z,-147.88
2022-09-21T10:10:35.291Z,13.89
2022-09-21T10:13:25.174Z,14.11
2022-09-21T10:15:55.865Z,14.38
2022-09-21T10:18:26.440Z,14.41
2022-09-21T10:20:56.052Z,14.19
2022-09-21T10:23:25.244Z,-147.88
2022-09-21T10:26:02.691Z,-147.88
2022-09-21T10:28:30.299Z,-147.88
2022-09-21T10:31:16.591Z,-147.88
2022-09-21T10:33:50.644Z,-147.88
2022-09-21T10:36:30.225Z,-147.88
2022-09-21T10:39:11.112Z,-147.88
2022-09-21T10:41:39.690Z,-147.88
2022-09-21T10:44:16.038Z,-147.88
2022-09-21T10:46:43.198Z,-147.88
2022-09-21T10:49:17.605Z,-147.88
2022-09-21T10:51:47.319Z,-147.88
2022-09-21T10:54:21.163Z,-147.88
2022-09-21T10:56:55.800Z,-147.88
2022-09-21T10:59:25.914Z,-147.88
2022-09-21T11:01:54.289Z,-147.88
2022-09-21T11:04:39.797Z,-147.88
2022-09-21T11:07:15.749Z,-147.88
2022-09-21T11:09:48.882Z,-147.88
2022-09-21T11:12:45.609Z,-147.88
2022-09-21T11:15:21.023Z,-147.88
2022-09-21T11:17:52.319Z,-147.88
2022-09-21T11:20:28.197Z,-147.88
2022-09-21T11:23:03.553Z,-147.88
2022-09-21T11:25:42.308Z,-147.88
2022-09-21T11:28:15.791Z,-147.88
2022-09-21T11:30:54.170Z,-147.88
2022-09-21T11:33:37.819Z,-147.88
2022-09-21T11:36:13.667Z,-147.88
2022-09-21T11:38:51.703Z,-147.88
2022-09-21T11:41:35.828Z,-147.88
2022-09-21T11:44:32.329Z,-147.88
2022-09-21T11:47:09.383Z,-147.88
2022-09-21T11:50:26.043Z,-147.88
2022-09-21T11:52:57.987Z,-147.88
2022-09-21T11:55:44.628Z,-147.88
2022-09-21T11:58:23.971Z,-147.88
2022-09-21T12:01:03.149Z,-147.88
2022-09-21T12:04:03.641Z,14.52
2022-09-21T12:06:44.022Z,-147.88
2022-09-21T12:09:34.740Z,-147.88
2022-09-21T12:12:10.743Z,-147.88
2022-09-21T12:14:50.993Z,15.07
2022-09-21T12:17:31.075Z,14.64
2022-09-21T12:20:08.838Z,14.77
2022-09-21T12:22:39.991Z,15.19
2022-09-21T12:25:17.628Z,14.70
2022-09-21T12:27:49.205Z,15.08
2022-09-21T12:30:20.908Z,16.23
2022-09-21T12:32:55.714Z,16.21
2022-09-21T12:35:28.494Z,15.11
2022-09-21T12:38:01.565Z,14.69
2022-09-21T12:40:37.583Z,14.52
2022-09-21T12:43:13.734Z,14.25
2022-09-21T12:45:45.450Z,14.11
2022-09-21T12:48:21.387Z,14.08
2022-09-21T12:50:52.393Z,13.85
2022-09-21T12:53:23.487Z,13.84
2022-09-21T12:55:57.415Z,13.71
2022-09-21T12:58:44.445Z,13.69
2022-09-21T13:01:23.070Z,13.66
2022-09-21T13:04:02.288Z,14.74
2022-09-21T13:06:48.378Z,15.98
2022-09-21T13:09:20.236Z,-147.88
2022-09-21T13:11:55.673Z,-147.88
2022-09-21T13:14:25.545Z,-147.88
2022-09-21T13:17:01.108Z,-147.88
2022-09-21T13:19:31.903Z,-147.88
2022-09-21T13:22:16.123Z,17.00
2022-09-21T13:24:45.645Z,17.60
2022-09-21T13:27:13.921Z,16.39
2022-09-21T13:29:42.994Z,15.83
2022-09-21T13:32:47.867Z,15.18
2022-09-21T13:35:53.264Z,14.68
2022-09-21T13:38:24.526Z,14.36
2022-09-21T13:40:58.789Z,14.20
2022-09-21T13:44:06.682Z,14.09
2022-09-21T13:46:50.417Z,-147.88
2022-09-21T13:49:24.067Z,16.46
2022-09-21T13:51:57.722Z,17.24
2022-09-21T13:57:20.446Z,-147.88
2022-09-21T13:59:59.529Z,18.54
2022-09-21T14:02:35.829Z,18.45
2022-09-21T14:05:10.917Z,18.11
2022-09-21T14:07:41.628Z,18.03
2022-09-21T14:10:11.511Z,18.33
2022-09-21T14:12:44.872Z,18.16
2022-09-21T14:15:35.108Z,18.46
2022-09-21T14:18:35.809Z,18.92
2022-09-21T14:21:24.225Z,-147.88
2022-09-21T14:24:34.240Z,-147.88
2022-09-21T14:27:07.167Z,-147.88
2022-09-21T14:29:45.013Z,-147.88
2022-09-21T14:32:17.609Z,-147.88
2022-09-21T14:34:48.615Z,-147.88
2022-09-21T14:37:29.091Z,-147.88
2022-09-21T14:39:59.306Z,-147.88
2022-09-21T14:42:29.228Z,-147.88
2022-09-21T14:45:02.328Z,20.04
2022-09-21T14:47:49.129Z,-147.88
2022-09-21T14:50:33.109Z,-147.88
2022-09-21T14:53:14.385Z,-147.88
2022-09-21T14:55:56.543Z,-147.88
2022-09-21T14:58:41.699Z,-147.88
2022-09-21T15:01:35.987Z,-147.88
2022-09-21T15:04:21.582Z,-147.88
2022-09-21T15:07:19.993Z,-147.88
2022-09-21T15:10:23.177Z,-147.88
2022-09-21T15:12:59.788Z,-147.88
2022-09-21T15:15:37.623Z,20.04
2022-09-21T15:18:17.919Z,-147.88
2022-09-21T15:20:45.000Z,-147.88
2022-09-21T15:23:19.844Z,-147.88
2022-09-21T15:25:58.683Z,-147.88
2022-09-21T15:29:05.440Z,-147.88
2022-09-21T15:31:33.750Z,-147.88
2022-09-21T15:34:02.765Z,16.98
2022-09-21T15:36:31.427Z,17.39
2022-09-21T15:38:59.893Z,18.47
2022-09-21T15:41:40.469Z,19.62
2022-09-21T15:44:17.677Z,-147.88
2022-09-21T15:46:47.391Z,-147.88
2022-09-21T15:49:17.938Z,-147.88
2022-09-21T15:51:46.299Z,-147.88
2022-09-21T15:54:27.303Z,16.37
2022-09-21T15:56:55.743Z,16.03
2022-09-21T15:59:24.606Z,15.77
2022-09-21T16:01:55.280Z,15.46
2022-09-21T16:04:23.938Z,15.26
2022-09-21T16:07:01.240Z,15.24
2022-09-21T16:09:37.938Z,15.30
2022-09-21T16:12:30.400Z,15.21
2022-09-21T16:15:05.718Z,15.18
2022-09-21T16:17:37.634Z,15.15
2022-09-21T16:20:16.184Z,15.13
2022-09-21T16:22:47.081Z,14.95
2022-09-21T16:25:24.950Z,14.86
2022-09-21T16:27:54.512Z,14.94
2022-09-21T16:30:47.343Z,14.91
2022-09-21T16:33:41.216Z,14.80
2022-09-21T16:36:46.470Z,14.66
2022-09-21T16:39:16.010Z,14.46
2022-09-21T16:41:48.667Z,14.33
2022-09-21T16:44:21.052Z,14.20
2022-09-21T16:46:54.094Z,14.03
2022-09-21T16:49:24.804Z,13.92
2022-09-21T16:51:55.902Z,13.78
2022-09-21T16:54:26.276Z,13.71
2022-09-21T16:56:55.241Z,13.53
2022-09-21T16:59:23.338Z,13.42
2022-09-21T17:01:56.411Z,13.26
2022-09-21T17:04:25.418Z,13.16
2022-09-21T17:06:54.383Z,12.97
2022-09-21T17:09:28.975Z,12.80
2022-09-21T17:11:57.962Z,12.62
2022-09-21T17:14:25.478Z,12.51
2022-09-21T17:16:56.520Z,12.38
2022-09-21T17:19:23.894Z,12.26
2022-09-21T17:21:51.430Z,12.10
2022-09-21T17:24:33.066Z,11.95
2022-09-21T17:27:05.670Z,11.83
2022-09-21T17:29:37.488Z,11.89
2022-09-21T17:32:10.557Z,11.96
2022-09-21T17:34:37.683Z,12.05
2022-09-21T17:37:04.814Z,11.92
2022-09-21T17:39:31.882Z,11.60
2022-09-21T17:42:02.920Z,11.38
2022-09-21T17:44:55.521Z,11.09
2022-09-21T17:47:29.694Z,10.86
2022-09-21T17:50:02.827Z,10.65
2022-09-21T17:52:50.238Z,10.72
2022-09-21T17:55:18.841Z,10.72
2022-09-21T17:57:58.110Z,10.68
2022-09-21T18:00:34.230Z,10.53
2022-09-21T18:03:03.545Z,10.42
2022-09-21T18:05:31.182Z,10.28
2022-09-21T18:07:59.578Z,10.19
2022-09-21T18:10:28.034Z,10.12
2022-09-21T18:13:11.515Z,10.07
2022-09-21T18:15:48.055Z,10.04
2022-09-21T18:18:19.976Z,9.99
2022-09-21T18:21:02.078Z,9.90
2022-09-21T18:23:35.557Z,9.84
2022-09-21T18:26:03.191Z,9.78
2022-09-21T18:28:39.613Z,9.73
2022-09-21T18:31:31.882Z,9.71
2022-09-21T18:34:14.027Z,9.70
2022-09-21T18:36:48.690Z,9.63
2022-09-21T18:39:26.416Z,9.65
2022-09-21T18:42:08.935Z,9.66
2022-09-21T18:44:44.326Z,9.68
2022-09-21T18:47:20.905Z,9.66
2022-09-21T18:50:00.632Z,9.78
2022-09-21T18:52:43.247Z,9.82
2022-09-21T18:55:23.855Z,9.78
2022-09-21T18:57:52.918Z,9.80
2022-09-21T19:00:24.396Z,9.80
2022-09-21T19:03:15.781Z,9.81
2022-09-21T19:05:47.930Z,9.72
2022-09-21T19:08:23.729Z,9.68
2022-09-21T19:10:55.282Z,10.07
2022-09-21T19:13:36.020Z,10.23
2022-09-21T19:16:11.720Z,10.10
2022-09-21T19:18:47.116Z,9.83
2022-09-21T19:21:28.403Z,9.71
2022-09-21T19:24:06.424Z,9.55
2022-09-21T19:26:41.039Z,9.41
2022-09-21T19:29:35.356Z,9.28
2022-09-21T19:32:02.575Z,9.17
2022-09-21T19:34:29.884Z,9.06
2022-09-21T19:37:01.616Z,9.00
2022-09-21T19:39:32.109Z,8.95
2022-09-21T19:42:08.819Z,8.90
2022-09-21T19:44:46.179Z,8.80
2022-09-21T19:47:25.514Z,8.74
2022-09-21T19:49:55.774Z,8.75
2022-09-21T19:52:31.025Z,8.67
2022-09-21T19:55:18.181Z,8.61
2022-09-21T19:58:05.214Z,8.50
2022-09-21T20:00:34.045Z,8.43
2022-09-21T20:03:11.609Z,8.37
2022-09-21T20:05:49.204Z,8.22
2022-09-21T20:08:28.545Z,8.23
2022-09-21T20:11:07.501Z,8.09
2022-09-21T20:13:53.914Z,7.95
2022-09-21T20:16:32.439Z,7.92
2022-09-21T20:19:07.265Z,7.86
2022-09-21T20:21:39.191Z,7.80
2022-09-21T20:24:19.236Z,7.83
2022-09-21T20:26:49.076Z,7.72
2022-09-21T20:29:16.363Z,7.67
2022-09-21T20:31:44.458Z,7.58
2022-09-21T20:34:12.923Z,7.59
2022-09-21T20:36:40.453Z,7.51
2022-09-21T20:39:07.644Z,7.45
2022-09-21T20:41:37.807Z,7.45
2022-09-21T20:44:05.099Z,7.40
2022-09-21T20:46:32.066Z,7.41
2022-09-21T20:49:05.306Z,7.35
2022-09-21T20:51:34.067Z,7.35
2022-09-21T20:54:02.458Z,7.27
2022-09-21T20:56:29.808Z,7.25
2022-09-21T20:58:59.420Z,7.20
2022-09-21T21:01:27.135Z,7.56
2022-09-21T21:04:01.815Z,7.70
2022-09-21T21:06:31.829Z,7.52
2022-09-21T21:08:58.965Z,7.32
2022-09-21T21:11:28.136Z,7.20
2022-09-21T21:13:56.025Z,7.10
2022-09-21T21:16:27.008Z,7.03
2022-09-21T21:18:54.166Z,6.98
2022-09-21T21:21:21.489Z,6.94
2022-09-21T21:24:17.572Z,6.88
2022-09-21T21:27:01.352Z,6.85
2022-09-21T21:29:29.614Z,6.77
2022-09-21T21:31:59.229Z,6.76
2022-09-21T21:34:26.330Z,6.73
2022-09-21T21:36:53.308Z,6.62
2022-09-21T21:39:20.118Z,6.63
2022-09-21T21:41:47.201Z,6.59
2022-09-21T21:44:14.100Z,6.52
2022-09-21T21:46:41.848Z,6.49
2022-09-21T21:49:10.675Z,6.45
2022-09-21T21:51:37.851Z,6.49
2022-09-21T21:54:04.710Z,6.45
2022-09-21T21:56:31.776Z,6.41
2022-09-21T21:58:58.685Z,6.35
2022-09-21T22:01:28.196Z,6.30
2022-09-21T22:03:56.448Z,6.26
2022-09-21T22:06:25.534Z,6.19
2022-09-21T22:08:52.978Z,-147.88
2022-09-21T22:11:20.017Z,-147.88
2022-09-21T22:13:51.216Z,-147.88
2022-09-21T22:16:20.259Z,-147.88
2022-09-21T22:18:47.482Z,-147.88
2022-09-21T22:21:16.375Z,-147.88
2022-09-21T22:23:45.100Z,-147.88
2022-09-21T22:26:15.494Z,-147.88
2022-09-21T22:28:43.771Z,-147.88
2022-09-21T22:31:14.403Z,-147.88
2022-09-21T22:33:41.589Z,-147.88
2022-09-21T22:36:10.303Z,-147.88
2022-09-21T22:38:42.518Z,-147.88
2022-09-21T22:41:12.523Z,-147.88
2022-09-21T22:43:39.943Z,-147.88
2022-09-21T22:46:07.850Z,-147.88
2022-09-21T22:48:35.719Z,-147.88
2022-09-21T22:51:03.441Z,5.62
2022-09-21T22:53:32.336Z,5.59
2022-09-21T22:56:05.607Z,5.59
2022-09-21T22:58:35.144Z,5.51
2022-09-21T23:01:06.316Z,5.49
2022-09-21T23:03:33.682Z,5.46
2022-09-21T23:06:01.817Z,5.42
2022-09-21T23:08:29.138Z,5.41
2022-09-21T23:10:56.978Z,5.35
2022-09-21T23:13:23.959Z,5.34
2022-09-21T23:15:52.155Z,5.34
2022-09-21T23:18:19.012Z,5.36
2022-09-21T23:20:56.802Z,5.29
2022-09-21T23:23:24.713Z,5.24
2022-09-21T23:26:01.199Z,5.22
2022-09-21T23:28:27.979Z,5.21
2022-09-21T23:30:57.920Z,5.20
2022-09-21T23:33:24.915Z,5.17
2022-09-21T23:35:52.000Z,5.17
2022-09-21T23:38:18.776Z,5.14
2022-09-21T23:40:45.619Z,5.08
2022-09-21T23:43:12.500Z,5.04
2022-09-21T23:45:41.875Z,5.00
2022-09-21T23:48:10.053Z,4.94
2022-09-21T23:50:36.939Z,4.90
2022-09-21T23:53:03.722Z,4.90
2022-09-21T23:55:31.070Z,4.88
2022-09-21T23:57:57.871Z,4.80
